sensor_id;sensor_type;location;lat;lon;timestamp;temperature;humidity
9049;DHT22;4559;47.252;9.592;2022-09-14T00:01:24;19.90;99.90
9049;DHT22;4559;47.252;9.592;2022-09-14T00:03:57;19.90;99.90
9049;DHT22;4559;47.252;9.592;2022-09-14T00:06:24;19.90;99.90
9049;DHT22;4559;47.252;9.592;2022-09-14T00:08:51;19.90;99.90
9049;DHT22;4559;47.252;9.592;2022-09-14T00:11:18;19.90;99.90
9049;DHT22;4559;47.252;9.592;2022-09-14T00:13:45;19.90;99.90
9049;DHT22;4559;47.252;9.592;2022-09-14T00:16:20;19.90;99.90
9049;DHT22;4559;47.252;9.592;2022-09-14T00:18:54;19.80;99.90
9049;DHT22;4559;47.252;9.592;2022-09-14T00:21:21;19.80;99.90
9049;DHT22;4559;47.252;9.592;2022-09-14T00:23:47;19.90;99.90
9049;DHT22;4559;47.252;9.592;2022-09-14T00:26:16;19.80;99.90
9049;DHT22;4559;47.252;9.592;2022-09-14T00:28:48;19.80;99.90
9049;DHT22;4559;47.252;9.592;2022-09-14T00:31:14;19.90;99.90
9049;DHT22;4559;47.252;9.592;2022-09-14T00:33:41;19.90;99.90
9049;DHT22;4559;47.252;9.592;2022-09-14T00:36:12;19.80;99.90
9049;DHT22;4559;47.252;9.592;2022-09-14T00:38:39;19.80;99.90
9049;DHT22;4559;47.252;9.592;2022-09-14T00:41:10;19.80;99.90
9049;DHT22;4559;47.252;9.592;2022-09-14T00:43:56;19.80;99.90
9049;DHT22;4559;47.252;9.592;2022-09-14T00:46:24;19.70;99.90
9049;DHT22;4559;47.252;9.592;2022-09-14T00:48:51;19.70;99.90
9049;DHT22;4559;47.252;9.592;2022-09-14T00:51:18;19.70;99.90
9049;DHT22;4559;47.252;9.592;2022-09-14T00:53:45;19.80;99.90
9049;DHT22;4559;47.252;9.592;2022-09-14T00:56:11;19.80;99.90
9049;DHT22;4559;47.252;9.592;2022-09-14T00:58:38;19.80;99.90
9049;DHT22;4559;47.252;9.592;2022-09-14T01:01:04;19.80;99.90
9049;DHT22;4559;47.252;9.592;2022-09-14T01:03:30;19.70;99.90
9049;DHT22;4559;47.252;9.592;2022-09-14T01:11:16;19.80;99.90
9049;DHT22;4559;47.252;9.592;2022-09-14T01:14:13;19.80;99.90
9049;DHT22;4559;47.252;9.592;2022-09-14T01:17:08;19.80;99.90
9049;DHT22;4559;47.252;9.592;2022-09-14T01:22:13;19.90;99.90
9049;DHT22;4559;47.252;9.592;2022-09-14T01:24:47;19.80;99.90
9049;DHT22;4559;47.252;9.592;2022-09-14T01:27:27;19.80;99.90
9049;DHT22;4559;47.252;9.592;2022-09-14T01:35:33;19.80;99.90
9049;DHT22;4559;47.252;9.592;2022-09-14T01:40:43;19.80;99.90
9049;DHT22;4559;47.252;9.592;2022-09-14T01:45:54;19.80;99.90
9049;DHT22;4559;47.252;9.592;2022-09-14T01:48:26;19.80;99.90
9049;DHT22;4559;47.252;9.592;2022-09-14T01:50:56;19.80;99.90
9049;DHT22;4559;47.252;9.592;2022-09-14T01:58:32;19.80;99.90
9049;DHT22;4559;47.252;9.592;2022-09-14T02:01:02;19.80;99.90
9049;DHT22;4559;47.252;9.592;2022-09-14T02:03:33;19.80;99.90
9049;DHT22;4559;47.252;9.592;2022-09-14T02:06:10;19.80;99.90
9049;DHT22;4559;47.252;9.592;2022-09-14T02:08:38;19.80;99.90
9049;DHT22;4559;47.252;9.592;2022-09-14T02:11:03;19.80;99.90
9049;DHT22;4559;47.252;9.592;2022-09-14T02:13:29;19.80;99.90
9049;DHT22;4559;47.252;9.592;2022-09-14T02:15:55;19.70;99.90
9049;DHT22;4559;47.252;9.592;2022-09-14T02:18:20;19.70;99.90
9049;DHT22;4559;47.252;9.592;2022-09-14T02:20:53;19.70;99.90
9049;DHT22;4559;47.252;9.592;2022-09-14T02:23:21;19.70;99.90
9049;DHT22;4559;47.252;9.592;2022-09-14T02:25:47;19.70;99.90
9049;DHT22;4559;47.252;9.592;2022-09-14T02:28:13;19.70;99.90
9049;DHT22;4559;47.252;9.592;2022-09-14T02:30:53;19.70;99.90
9049;DHT22;4559;47.252;9.592;2022-09-14T02:36:27;19.70;99.90
9049;DHT22;4559;47.252;9.592;2022-09-14T02:39:01;19.70;99.90
9049;DHT22;4559;47.252;9.592;2022-09-14T02:41:53;19.70;99.90
9049;DHT22;4559;47.252;9.592;2022-09-14T02:44:38;19.70;99.90
9049;DHT22;4559;47.252;9.592;2022-09-14T02:47:14;19.70;99.90
9049;DHT22;4559;47.252;9.592;2022-09-14T02:52:14;19.70;99.90
9049;DHT22;4559;47.252;9.592;2022-09-14T02:54:42;19.60;99.90
9049;DHT22;4559;47.252;9.592;2022-09-14T02:57:12;19.60;99.90
9049;DHT22;4559;47.252;9.592;2022-09-14T02:59:37;19.60;99.90
9049;DHT22;4559;47.252;9.592;2022-09-14T03:02:03;19.60;99.90
9049;DHT22;4559;47.252;9.592;2022-09-14T03:04:29;19.60;99.90
9049;DHT22;4559;47.252;9.592;2022-09-14T03:06:54;19.60;99.90
9049;DHT22;4559;47.252;9.592;2022-09-14T03:09:20;19.60;99.90
9049;DHT22;4559;47.252;9.592;2022-09-14T03:11:45;19.60;99.90
9049;DHT22;4559;47.252;9.592;2022-09-14T03:14:11;19.60;99.90
9049;DHT22;4559;47.252;9.592;2022-09-14T03:16:38;19.60;99.90
9049;DHT22;4559;47.252;9.592;2022-09-14T03:19:04;19.50;99.90
9049;DHT22;4559;47.252;9.592;2022-09-14T03:21:31;19.50;99.90
9049;DHT22;4559;47.252;9.592;2022-09-14T03:23:57;19.50;99.90
9049;DHT22;4559;47.252;9.592;2022-09-14T03:26:24;19.40;99.90
9049;DHT22;4559;47.252;9.592;2022-09-14T03:28:51;19.40;99.90
9049;DHT22;4559;47.252;9.592;2022-09-14T03:31:18;19.40;99.90
9049;DHT22;4559;47.252;9.592;2022-09-14T03:33:43;19.40;99.90
9049;DHT22;4559;47.252;9.592;2022-09-14T03:36:11;19.40;99.90
9049;DHT22;4559;47.252;9.592;2022-09-14T03:38:37;19.40;99.90
9049;DHT22;4559;47.252;9.592;2022-09-14T03:41:10;19.40;99.90
9049;DHT22;4559;47.252;9.592;2022-09-14T03:43:36;19.40;99.90
9049;DHT22;4559;47.252;9.592;2022-09-14T03:46:21;19.30;99.90
9049;DHT22;4559;47.252;9.592;2022-09-14T03:48:47;19.40;99.90
9049;DHT22;4559;47.252;9.592;2022-09-14T03:51:13;19.40;99.90
9049;DHT22;4559;47.252;9.592;2022-09-14T03:53:40;19.40;99.90
9049;DHT22;4559;47.252;9.592;2022-09-14T03:56:11;19.50;99.90
9049;DHT22;4559;47.252;9.592;2022-09-14T03:58:37;19.50;99.90
9049;DHT22;4559;47.252;9.592;2022-09-14T04:01:05;19.50;99.90
9049;DHT22;4559;47.252;9.592;2022-09-14T04:03:31;19.50;99.90
9049;DHT22;4559;47.252;9.592;2022-09-14T04:05:57;19.50;99.90
9049;DHT22;4559;47.252;9.592;2022-09-14T04:08:23;19.50;99.90
9049;DHT22;4559;47.252;9.592;2022-09-14T04:10:49;19.40;99.90
9049;DHT22;4559;47.252;9.592;2022-09-14T04:13:15;19.40;99.90
9049;DHT22;4559;47.252;9.592;2022-09-14T04:15:40;19.40;99.90
9049;DHT22;4559;47.252;9.592;2022-09-14T04:18:06;19.40;99.90
9049;DHT22;4559;47.252;9.592;2022-09-14T04:20:31;19.40;99.90
9049;DHT22;4559;47.252;9.592;2022-09-14T04:22:57;19.40;99.90
9049;DHT22;4559;47.252;9.592;2022-09-14T04:25:23;19.40;99.90
9049;DHT22;4559;47.252;9.592;2022-09-14T04:27:49;19.30;99.90
9049;DHT22;4559;47.252;9.592;2022-09-14T04:30:15;19.30;99.90
9049;DHT22;4559;47.252;9.592;2022-09-14T04:32:40;19.30;99.90
9049;DHT22;4559;47.252;9.592;2022-09-14T04:35:06;19.40;99.90
9049;DHT22;4559;47.252;9.592;2022-09-14T04:37:32;19.50;99.90
9049;DHT22;4559;47.252;9.592;2022-09-14T04:39:59;19.50;99.90
9049;DHT22;4559;47.252;9.592;2022-09-14T04:42:24;19.50;99.90
9049;DHT22;4559;47.252;9.592;2022-09-14T04:44:50;19.50;99.90
9049;DHT22;4559;47.252;9.592;2022-09-14T04:47:16;19.50;99.90
9049;DHT22;4559;47.252;9.592;2022-09-14T04:49:41;19.50;99.90
9049;DHT22;4559;47.252;9.592;2022-09-14T04:52:10;19.50;99.90
9049;DHT22;4559;47.252;9.592;2022-09-14T04:54:36;19.50;99.90
9049;DHT22;4559;47.252;9.592;2022-09-14T04:57:01;19.50;99.90
9049;DHT22;4559;47.252;9.592;2022-09-14T04:59:27;19.50;99.90
9049;DHT22;4559;47.252;9.592;2022-09-14T05:01:52;19.50;99.90
9049;DHT22;4559;47.252;9.592;2022-09-14T05:04:18;19.50;99.90
9049;DHT22;4559;47.252;9.592;2022-09-14T05:06:44;19.50;99.90
9049;DHT22;4559;47.252;9.592;2022-09-14T05:09:13;19.50;99.90
9049;DHT22;4559;47.252;9.592;2022-09-14T05:11:39;19.50;99.90
9049;DHT22;4559;47.252;9.592;2022-09-14T05:14:05;19.50;99.90
9049;DHT22;4559;47.252;9.592;2022-09-14T05:16:35;19.50;99.90
9049;DHT22;4559;47.252;9.592;2022-09-14T05:19:05;19.50;99.90
9049;DHT22;4559;47.252;9.592;2022-09-14T05:21:33;19.40;99.90
9049;DHT22;4559;47.252;9.592;2022-09-14T05:24:01;19.40;99.90
9049;DHT22;4559;47.252;9.592;2022-09-14T05:26:28;19.40;99.90
9049;DHT22;4559;47.252;9.592;2022-09-14T05:28:55;19.50;99.90
9049;DHT22;4559;47.252;9.592;2022-09-14T05:31:22;19.50;99.90
9049;DHT22;4559;47.252;9.592;2022-09-14T05:33:50;19.50;99.90
9049;DHT22;4559;47.252;9.592;2022-09-14T05:36:16;19.50;99.90
9049;DHT22;4559;47.252;9.592;2022-09-14T05:38:42;19.50;99.90
9049;DHT22;4559;47.252;9.592;2022-09-14T05:41:11;19.40;99.90
9049;DHT22;4559;47.252;9.592;2022-09-14T05:43:37;19.40;99.90
9049;DHT22;4559;47.252;9.592;2022-09-14T05:46:10;19.50;99.90
9049;DHT22;4559;47.252;9.592;2022-09-14T05:48:37;19.50;99.90
9049;DHT22;4559;47.252;9.592;2022-09-14T05:51:09;19.40;99.90
9049;DHT22;4559;47.252;9.592;2022-09-14T05:53:36;19.40;99.90
9049;DHT22;4559;47.252;9.592;2022-09-14T05:56:10;19.50;99.90
9049;DHT22;4559;47.252;9.592;2022-09-14T05:58:37;19.50;99.90
9049;DHT22;4559;47.252;9.592;2022-09-14T06:01:14;19.60;99.90
9049;DHT22;4559;47.252;9.592;2022-09-14T06:03:41;19.60;99.90
9049;DHT22;4559;47.252;9.592;2022-09-14T06:06:08;19.60;99.90
9049;DHT22;4559;47.252;9.592;2022-09-14T06:08:35;19.60;99.90
9049;DHT22;4559;47.252;9.592;2022-09-14T06:11:15;19.70;99.90
9049;DHT22;4559;47.252;9.592;2022-09-14T06:13:42;19.70;99.90
9049;DHT22;4559;47.252;9.592;2022-09-14T06:16:11;19.70;99.90
9049;DHT22;4559;47.252;9.592;2022-09-14T06:18:38;19.70;99.90
9049;DHT22;4559;47.252;9.592;2022-09-14T06:21:04;19.80;99.90
9049;DHT22;4559;47.252;9.592;2022-09-14T06:23:31;19.80;99.90
9049;DHT22;4559;47.252;9.592;2022-09-14T06:25:59;19.90;99.90
9049;DHT22;4559;47.252;9.592;2022-09-14T06:28:25;20.00;99.90
9049;DHT22;4559;47.252;9.592;2022-09-14T06:30:52;20.00;99.90
9049;DHT22;4559;47.252;9.592;2022-09-14T06:33:18;20.00;99.90
9049;DHT22;4559;47.252;9.592;2022-09-14T06:36:04;20.10;99.90
9049;DHT22;4559;47.252;9.592;2022-09-14T06:38:31;20.20;99.90
9049;DHT22;4559;47.252;9.592;2022-09-14T06:40:59;20.30;99.90
9049;DHT22;4559;47.252;9.592;2022-09-14T06:43:27;20.30;99.90
9049;DHT22;4559;47.252;9.592;2022-09-14T06:45:56;20.30;99.90
9049;DHT22;4559;47.252;9.592;2022-09-14T06:48:22;20.40;99.90
9049;DHT22;4559;47.252;9.592;2022-09-14T06:50:47;20.50;99.90
9049;DHT22;4559;47.252;9.592;2022-09-14T06:53:13;20.50;99.90
9049;DHT22;4559;47.252;9.592;2022-09-14T06:55:38;20.50;99.90
9049;DHT22;4559;47.252;9.592;2022-09-14T06:58:04;20.50;99.90
9049;DHT22;4559;47.252;9.592;2022-09-14T07:00:32;20.60;99.90
9049;DHT22;4559;47.252;9.592;2022-09-14T07:02:57;20.70;99.90
9049;DHT22;4559;47.252;9.592;2022-09-14T07:05:23;20.70;99.90
9049;DHT22;4559;47.252;9.592;2022-09-14T07:07:52;20.90;99.90
9049;DHT22;4559;47.252;9.592;2022-09-14T07:10:18;21.00;99.90
9049;DHT22;4559;47.252;9.592;2022-09-14T07:12:43;21.00;99.90
9049;DHT22;4559;47.252;9.592;2022-09-14T07:15:09;21.10;99.90
9049;DHT22;4559;47.252;9.592;2022-09-14T07:17:35;21.20;99.90
9049;DHT22;4559;47.252;9.592;2022-09-14T07:20:05;21.30;99.90
9049;DHT22;4559;47.252;9.592;2022-09-14T07:22:35;21.40;99.90
9049;DHT22;4559;47.252;9.592;2022-09-14T07:25:00;21.50;99.90
9049;DHT22;4559;47.252;9.592;2022-09-14T07:27:26;21.70;99.90
9049;DHT22;4559;47.252;9.592;2022-09-14T07:29:52;21.70;99.90
9049;DHT22;4559;47.252;9.592;2022-09-14T07:32:18;21.70;99.90
9049;DHT22;4559;47.252;9.592;2022-09-14T07:34:43;21.90;99.90
9049;DHT22;4559;47.252;9.592;2022-09-14T07:37:10;21.90;99.90
9049;DHT22;4559;47.252;9.592;2022-09-14T07:39:36;22.00;99.90
9049;DHT22;4559;47.252;9.592;2022-09-14T07:42:01;22.00;99.90
9049;DHT22;4559;47.252;9.592;2022-09-14T07:44:27;22.00;99.90
9049;DHT22;4559;47.252;9.592;2022-09-14T07:46:52;22.00;99.90
9049;DHT22;4559;47.252;9.592;2022-09-14T07:49:18;22.10;99.90
9049;DHT22;4559;47.252;9.592;2022-09-14T07:51:44;22.10;99.90
9049;DHT22;4559;47.252;9.592;2022-09-14T07:54:12;22.20;99.90
9049;DHT22;4559;47.252;9.592;2022-09-14T07:56:39;22.30;99.90
9049;DHT22;4559;47.252;9.592;2022-09-14T07:59:05;22.40;99.90
9049;DHT22;4559;47.252;9.592;2022-09-14T08:01:31;22.50;99.90
9049;DHT22;4559;47.252;9.592;2022-09-14T08:04:00;22.60;99.90
9049;DHT22;4559;47.252;9.592;2022-09-14T08:06:26;22.70;99.90
9049;DHT22;4559;47.252;9.592;2022-09-14T08:08:53;22.80;99.90
9049;DHT22;4559;47.252;9.592;2022-09-14T08:13:51;23.00;99.90
9049;DHT22;4559;47.252;9.592;2022-09-14T08:16:18;23.00;99.90
9049;DHT22;4559;47.252;9.592;2022-09-14T08:18:44;23.20;99.90
9049;DHT22;4559;47.252;9.592;2022-09-14T08:21:12;23.20;99.90
9049;DHT22;4559;47.252;9.592;2022-09-14T08:23:39;23.40;99.90
9049;DHT22;4559;47.252;9.592;2022-09-14T08:26:06;23.40;99.90
9049;DHT22;4559;47.252;9.592;2022-09-14T08:28:33;23.60;99.90
9049;DHT22;4559;47.252;9.592;2022-09-14T08:31:04;23.60;99.90
9049;DHT22;4559;47.252;9.592;2022-09-14T08:33:31;23.70;99.90
9049;DHT22;4559;47.252;9.592;2022-09-14T08:35:57;23.90;99.90
9049;DHT22;4559;47.252;9.592;2022-09-14T08:38:23;24.00;99.90
9049;DHT22;4559;47.252;9.592;2022-09-14T08:40:49;24.00;99.90
9049;DHT22;4559;47.252;9.592;2022-09-14T08:43:17;24.10;99.90
9049;DHT22;4559;47.252;9.592;2022-09-14T08:45:44;24.20;99.90
9049;DHT22;4559;47.252;9.592;2022-09-14T08:48:26;24.20;99.90
9049;DHT22;4559;47.252;9.592;2022-09-14T08:50:53;24.30;99.90
9049;DHT22;4559;47.252;9.592;2022-09-14T08:53:23;24.30;99.90
9049;DHT22;4559;47.252;9.592;2022-09-14T08:56:02;24.40;99.90
9049;DHT22;4559;47.252;9.592;2022-09-14T08:58:54;24.40;99.80
9049;DHT22;4559;47.252;9.592;2022-09-14T09:01:43;24.30;99.90
9049;DHT22;4559;47.252;9.592;2022-09-14T09:09:52;24.10;99.90
9049;DHT22;4559;47.252;9.592;2022-09-14T09:12:21;24.20;99.90
9049;DHT22;4559;47.252;9.592;2022-09-14T09:15:02;24.20;99.90
9049;DHT22;4559;47.252;9.592;2022-09-14T09:17:39;24.20;99.90
9049;DHT22;4559;47.252;9.592;2022-09-14T09:20:16;24.30;99.90
9049;DHT22;4559;47.252;9.592;2022-09-14T09:22:49;24.40;99.90
9049;DHT22;4559;47.252;9.592;2022-09-14T09:25:22;24.50;99.90
9049;DHT22;4559;47.252;9.592;2022-09-14T09:28:01;24.50;99.90
9049;DHT22;4559;47.252;9.592;2022-09-14T09:30:28;24.60;99.90
9049;DHT22;4559;47.252;9.592;2022-09-14T09:32:54;24.60;99.90
9049;DHT22;4559;47.252;9.592;2022-09-14T09:35:22;24.80;99.90
9049;DHT22;4559;47.252;9.592;2022-09-14T09:37:49;24.90;99.90
9049;DHT22;4559;47.252;9.592;2022-09-14T09:40:18;25.10;99.90
9049;DHT22;4559;47.252;9.592;2022-09-14T09:43:08;25.30;99.90
9049;DHT22;4559;47.252;9.592;2022-09-14T09:48:16;25.50;99.40
9049;DHT22;4559;47.252;9.592;2022-09-14T09:51:10;25.60;99.10
9049;DHT22;4559;47.252;9.592;2022-09-14T09:53:44;25.80;99.20
9049;DHT22;4559;47.252;9.592;2022-09-14T09:56:34;26.00;98.50
9049;DHT22;4559;47.252;9.592;2022-09-14T09:59:00;26.20;98.40
9049;DHT22;4559;47.252;9.592;2022-09-14T10:01:32;26.40;98.00
9049;DHT22;4559;47.252;9.592;2022-09-14T10:04:04;26.40;98.80
9049;DHT22;4559;47.252;9.592;2022-09-14T10:06:31;26.60;98.40
9049;DHT22;4559;47.252;9.592;2022-09-14T10:09:20;26.80;97.90
9049;DHT22;4559;47.252;9.592;2022-09-14T10:11:57;27.00;97.60
9049;DHT22;4559;47.252;9.592;2022-09-14T10:14:32;27.40;97.40
9049;DHT22;4559;47.252;9.592;2022-09-14T10:19:31;28.50;95.80
9049;DHT22;4559;47.252;9.592;2022-09-14T10:24:52;29.60;94.10
9049;DHT22;4559;47.252;9.592;2022-09-14T10:30:19;30.80;93.50
9049;DHT22;4559;47.252;9.592;2022-09-14T10:33:00;31.20;92.10
9049;DHT22;4559;47.252;9.592;2022-09-14T10:38:29;31.70;86.90
9049;DHT22;4559;47.252;9.592;2022-09-14T10:46:03;30.80;87.10
9049;DHT22;4559;47.252;9.592;2022-09-14T10:49:03;30.40;89.60
9049;DHT22;4559;47.252;9.592;2022-09-14T11:19:05;28.70;89.60
9049;DHT22;4559;47.252;9.592;2022-09-14T11:24:40;28.40;90.90
9049;DHT22;4559;47.252;9.592;2022-09-14T11:30:14;28.10;91.20
9049;DHT22;4559;47.252;9.592;2022-09-14T11:35:40;27.70;92.10
9049;DHT22;4559;47.252;9.592;2022-09-14T11:38:19;27.50;92.30
9049;DHT22;4559;47.252;9.592;2022-09-14T11:43:51;27.00;93.40
9049;DHT22;4559;47.252;9.592;2022-09-14T11:46:39;26.80;94.00
9049;DHT22;4559;47.252;9.592;2022-09-14T11:49:28;26.60;94.60
9049;DHT22;4559;47.252;9.592;2022-09-14T11:52:15;26.40;95.00
9049;DHT22;4559;47.252;9.592;2022-09-14T11:54:42;26.20;95.70
9049;DHT22;4559;47.252;9.592;2022-09-14T11:57:15;26.10;96.20
9049;DHT22;4559;47.252;9.592;2022-09-14T12:17:41;25.80;98.20
9049;DHT22;4559;47.252;9.592;2022-09-14T12:20:35;25.80;98.50
9049;DHT22;4559;47.252;9.592;2022-09-14T12:23:18;25.80;99.00
9049;DHT22;4559;47.252;9.592;2022-09-14T12:51:46;28.40;96.30
9049;DHT22;4559;47.252;9.592;2022-09-14T12:57:26;28.70;95.40
9049;DHT22;4559;47.252;9.592;2022-09-14T13:02:37;28.70;95.30
9049;DHT22;4559;47.252;9.592;2022-09-14T13:05:18;28.60;94.80
9049;DHT22;4559;47.252;9.592;2022-09-14T13:07:45;28.40;94.90
9049;DHT22;4559;47.252;9.592;2022-09-14T13:10:22;28.30;95.30
9049;DHT22;4559;47.252;9.592;2022-09-14T13:12:49;28.10;95.10
9049;DHT22;4559;47.252;9.592;2022-09-14T13:15:20;28.00;95.60
9049;DHT22;4559;47.252;9.592;2022-09-14T13:20:49;27.60;96.30
9049;DHT22;4559;47.252;9.592;2022-09-14T13:23:27;27.40;96.60
9049;DHT22;4559;47.252;9.592;2022-09-14T13:25:53;27.20;97.00
9049;DHT22;4559;47.252;9.592;2022-09-14T13:28:20;27.10;97.30
9049;DHT22;4559;47.252;9.592;2022-09-14T13:30:57;27.10;98.10
9049;DHT22;4559;47.252;9.592;2022-09-14T13:33:23;27.40;98.70
9049;DHT22;4559;47.252;9.592;2022-09-14T13:35:54;27.70;99.10
9049;DHT22;4559;47.252;9.592;2022-09-14T13:40:55;27.90;98.70
9049;DHT22;4559;47.252;9.592;2022-09-14T13:43:27;27.90;98.60
9049;DHT22;4559;47.252;9.592;2022-09-14T13:45:53;28.00;98.60
9049;DHT22;4559;47.252;9.592;2022-09-14T13:48:19;28.30;98.30
9049;DHT22;4559;47.252;9.592;2022-09-14T13:50:50;28.60;97.70
9049;DHT22;4559;47.252;9.592;2022-09-14T13:53:42;28.90;97.60
9049;DHT22;4559;47.252;9.592;2022-09-14T13:58:49;29.20;96.80
9049;DHT22;4559;47.252;9.592;2022-09-14T14:01:27;29.20;96.00
9049;DHT22;4559;47.252;9.592;2022-09-14T14:03:53;29.20;95.60
9049;DHT22;4559;47.252;9.592;2022-09-14T14:06:29;29.10;95.90
9049;DHT22;4559;47.252;9.592;2022-09-14T14:08:56;28.90;95.30
9049;DHT22;4559;47.252;9.592;2022-09-14T14:11:43;28.50;95.20
9049;DHT22;4559;47.252;9.592;2022-09-14T14:17:06;27.70;95.70
9049;DHT22;4559;47.252;9.592;2022-09-14T14:19:28;27.40;96.10
9049;DHT22;4559;47.252;9.592;2022-09-14T14:24:38;27.00;96.70
9049;DHT22;4559;47.252;9.592;2022-09-14T14:27:04;27.00;97.00
9049;DHT22;4559;47.252;9.592;2022-09-14T14:29:30;26.80;96.90
9049;DHT22;4559;47.252;9.592;2022-09-14T14:31:55;26.70;96.50
9049;DHT22;4559;47.252;9.592;2022-09-14T14:34:26;26.60;96.40
9049;DHT22;4559;47.252;9.592;2022-09-14T14:36:53;26.60;97.00
9049;DHT22;4559;47.252;9.592;2022-09-14T14:39:21;26.50;96.50
9049;DHT22;4559;47.252;9.592;2022-09-14T14:41:47;26.50;96.30
9049;DHT22;4559;47.252;9.592;2022-09-14T14:44:22;26.50;96.50
9049;DHT22;4559;47.252;9.592;2022-09-14T14:46:49;26.50;96.20
9049;DHT22;4559;47.252;9.592;2022-09-14T14:49:16;26.50;96.20
9049;DHT22;4559;47.252;9.592;2022-09-14T14:51:42;26.50;96.20
9049;DHT22;4559;47.252;9.592;2022-09-14T14:54:09;26.40;96.00
9049;DHT22;4559;47.252;9.592;2022-09-14T14:56:35;26.20;95.70
9049;DHT22;4559;47.252;9.592;2022-09-14T14:59:02;26.10;95.80
9049;DHT22;4559;47.252;9.592;2022-09-14T15:01:28;26.10;96.30
9049;DHT22;4559;47.252;9.592;2022-09-14T15:03:54;26.00;96.30
9049;DHT22;4559;47.252;9.592;2022-09-14T15:06:22;25.80;96.30
9049;DHT22;4559;47.252;9.592;2022-09-14T15:08:55;25.70;96.40
9049;DHT22;4559;47.252;9.592;2022-09-14T15:11:21;25.60;96.80
9049;DHT22;4559;47.252;9.592;2022-09-14T15:13:47;25.50;96.50
9049;DHT22;4559;47.252;9.592;2022-09-14T15:16:14;25.30;96.80
9049;DHT22;4559;47.252;9.592;2022-09-14T15:18:40;25.20;97.60
9049;DHT22;4559;47.252;9.592;2022-09-14T15:21:06;25.10;98.30
9049;DHT22;4559;47.252;9.592;2022-09-14T15:23:33;24.90;99.40
9049;DHT22;4559;47.252;9.592;2022-09-14T15:25:59;24.60;99.80
9049;DHT22;4559;47.252;9.592;2022-09-14T15:28:24;24.50;99.90
9049;DHT22;4559;47.252;9.592;2022-09-14T15:30:50;24.50;99.90
9049;DHT22;4559;47.252;9.592;2022-09-14T15:33:16;24.40;99.90
9049;DHT22;4559;47.252;9.592;2022-09-14T15:35:42;24.40;99.90
9049;DHT22;4559;47.252;9.592;2022-09-14T15:38:08;24.30;99.90
9049;DHT22;4559;47.252;9.592;2022-09-14T15:40:35;24.20;99.90
9049;DHT22;4559;47.252;9.592;2022-09-14T15:43:00;24.20;99.90
9049;DHT22;4559;47.252;9.592;2022-09-14T15:45:26;24.10;99.90
9049;DHT22;4559;47.252;9.592;2022-09-14T15:47:52;24.00;99.90
9049;DHT22;4559;47.252;9.592;2022-09-14T15:50:17;24.00;99.90
9049;DHT22;4559;47.252;9.592;2022-09-14T15:52:43;24.00;99.90
9049;DHT22;4559;47.252;9.592;2022-09-14T15:55:10;23.90;99.90
9049;DHT22;4559;47.252;9.592;2022-09-14T15:57:36;23.80;99.90
9049;DHT22;4559;47.252;9.592;2022-09-14T16:00:05;23.60;99.90
9049;DHT22;4559;47.252;9.592;2022-09-14T16:02:31;23.40;99.90
9049;DHT22;4559;47.252;9.592;2022-09-14T16:04:56;23.20;99.90
9049;DHT22;4559;47.252;9.592;2022-09-14T16:07:22;23.10;99.90
9049;DHT22;4559;47.252;9.592;2022-09-14T16:09:48;22.90;99.90
9049;DHT22;4559;47.252;9.592;2022-09-14T16:12:14;22.80;99.90
9049;DHT22;4559;47.252;9.592;2022-09-14T16:14:40;22.70;99.90
9049;DHT22;4559;47.252;9.592;2022-09-14T16:17:06;22.50;99.90
9049;DHT22;4559;47.252;9.592;2022-09-14T16:19:33;22.50;99.90
9049;DHT22;4559;47.252;9.592;2022-09-14T16:21:59;22.50;99.90
9049;DHT22;4559;47.252;9.592;2022-09-14T16:24:25;22.40;99.90
9049;DHT22;4559;47.252;9.592;2022-09-14T16:26:52;22.30;99.90
9049;DHT22;4559;47.252;9.592;2022-09-14T16:29:19;22.30;99.90
9049;DHT22;4559;47.252;9.592;2022-09-14T16:31:46;22.20;99.90
9049;DHT22;4559;47.252;9.592;2022-09-14T16:34:19;22.10;99.90
9049;DHT22;4559;47.252;9.592;2022-09-14T16:36:46;22.10;99.90
9049;DHT22;4559;47.252;9.592;2022-09-14T16:39:15;22.00;99.90
9049;DHT22;4559;47.252;9.592;2022-09-14T16:41:41;22.00;99.90
9049;DHT22;4559;47.252;9.592;2022-09-14T16:44:14;21.90;99.90
9049;DHT22;4559;47.252;9.592;2022-09-14T16:46:40;21.80;99.90
9049;DHT22;4559;47.252;9.592;2022-09-14T16:49:06;21.70;99.90
9049;DHT22;4559;47.252;9.592;2022-09-14T16:51:32;21.70;99.90
9049;DHT22;4559;47.252;9.592;2022-09-14T16:53:59;21.60;99.90
9049;DHT22;4559;47.252;9.592;2022-09-14T16:56:27;21.60;99.90
9049;DHT22;4559;47.252;9.592;2022-09-14T16:58:54;21.60;99.90
9049;DHT22;4559;47.252;9.592;2022-09-14T17:03:52;21.40;99.90
9049;DHT22;4559;47.252;9.592;2022-09-14T17:06:25;21.30;99.90
9049;DHT22;4559;47.252;9.592;2022-09-14T17:08:56;21.20;99.90
9049;DHT22;4559;47.252;9.592;2022-09-14T17:11:22;21.10;99.90
9049;DHT22;4559;47.252;9.592;2022-09-14T17:13:48;21.00;99.90
9049;DHT22;4559;47.252;9.592;2022-09-14T17:16:16;21.00;99.90
9049;DHT22;4559;47.252;9.592;2022-09-14T17:18:43;21.00;99.90
9049;DHT22;4559;47.252;9.592;2022-09-14T17:21:22;21.00;99.90
9049;DHT22;4559;47.252;9.592;2022-09-14T17:23:48;21.10;99.90
9049;DHT22;4559;47.252;9.592;2022-09-14T17:26:15;21.10;99.90
9049;DHT22;4559;47.252;9.592;2022-09-14T17:28:42;21.00;99.90
9049;DHT22;4559;47.252;9.592;2022-09-14T17:31:10;21.00;99.90
9049;DHT22;4559;47.252;9.592;2022-09-14T17:33:37;21.00;99.90
9049;DHT22;4559;47.252;9.592;2022-09-14T17:36:04;20.90;99.90
9049;DHT22;4559;47.252;9.592;2022-09-14T17:38:35;20.90;99.90
9049;DHT22;4559;47.252;9.592;2022-09-14T17:41:12;20.80;99.90
9049;DHT22;4559;47.252;9.592;2022-09-14T17:43:38;20.80;99.90
9049;DHT22;4559;47.252;9.592;2022-09-14T17:46:06;20.90;99.90
9049;DHT22;4559;47.252;9.592;2022-09-14T17:48:35;20.90;99.90
9049;DHT22;4559;47.252;9.592;2022-09-14T17:51:06;20.80;99.90
9049;DHT22;4559;47.252;9.592;2022-09-14T17:53:36;20.80;99.90
9049;DHT22;4559;47.252;9.592;2022-09-14T17:56:04;20.70;99.90
9049;DHT22;4559;47.252;9.592;2022-09-14T17:58:30;20.70;99.90
9049;DHT22;4559;47.252;9.592;2022-09-14T18:01:13;20.70;99.90
9049;DHT22;4559;47.252;9.592;2022-09-14T18:03:42;20.60;99.90
9049;DHT22;4559;47.252;9.592;2022-09-14T18:06:10;20.60;99.90
9049;DHT22;4559;47.252;9.592;2022-09-14T18:08:37;20.60;99.90
9049;DHT22;4559;47.252;9.592;2022-09-14T18:11:10;20.60;99.90
9049;DHT22;4559;47.252;9.592;2022-09-14T18:13:44;20.60;99.90
9049;DHT22;4559;47.252;9.592;2022-09-14T18:16:11;20.60;99.90
9049;DHT22;4559;47.252;9.592;2022-09-14T18:18:37;20.60;99.90
9049;DHT22;4559;47.252;9.592;2022-09-14T18:21:03;20.50;99.90
9049;DHT22;4559;47.252;9.592;2022-09-14T18:23:29;20.50;99.90
9049;DHT22;4559;47.252;9.592;2022-09-14T18:25:55;20.50;99.90
9049;DHT22;4559;47.252;9.592;2022-09-14T18:28:22;20.30;99.90
9049;DHT22;4559;47.252;9.592;2022-09-14T18:30:47;20.20;99.90
9049;DHT22;4559;47.252;9.592;2022-09-14T18:33:13;20.20;99.90
9049;DHT22;4559;47.252;9.592;2022-09-14T18:35:39;20.20;99.90
9049;DHT22;4559;47.252;9.592;2022-09-14T18:38:06;20.20;99.90
9049;DHT22;4559;47.252;9.592;2022-09-14T18:40:35;20.10;99.90
9049;DHT22;4559;47.252;9.592;2022-09-14T18:43:01;20.00;99.90
9049;DHT22;4559;47.252;9.592;2022-09-14T18:45:28;20.00;99.90
9049;DHT22;4559;47.252;9.592;2022-09-14T18:47:54;20.00;99.90
9049;DHT22;4559;47.252;9.592;2022-09-14T18:50:20;20.00;99.90
9049;DHT22;4559;47.252;9.592;2022-09-14T18:52:48;20.00;99.90
9049;DHT22;4559;47.252;9.592;2022-09-14T18:55:14;20.00;99.90
9049;DHT22;4559;47.252;9.592;2022-09-14T18:57:43;20.00;99.90